sensor_id;sensor_type;location;lat;lon;timestamp;P1;durP1;ratioP1;P2;durP2;ratioP2
75135;SDS011;63707;52.212;9.540;2024-03-06T00:01:29;29.08;;;13.80;;
75135;SDS011;63707;52.212;9.540;2024-03-06T00:03:54;25.98;;;12.75;;
75135;SDS011;63707;52.212;9.540;2024-03-06T00:06:21;32.60;;;13.45;;
75135;SDS011;63707;52.212;9.540;2024-03-06T00:08:46;27.83;;;13.98;;
75135;SDS011;63707;52.212;9.540;2024-03-06T00:11:12;25.83;;;13.88;;
75135;SDS011;63707;52.212;9.540;2024-03-06T00:13:37;32.80;;;14.70;;
75135;SDS011;63707;52.212;9.540;2024-03-06T00:16:03;28.48;;;14.80;;
75135;SDS011;63707;52.212;9.540;2024-03-06T00:18:29;28.88;;;14.15;;
75135;SDS011;63707;52.212;9.540;2024-03-06T00:20:54;29.35;;;14.45;;
75135;SDS011;63707;52.212;9.540;2024-03-06T00:23:21;33.40;;;16.10;;
75135;SDS011;63707;52.212;9.540;2024-03-06T00:25:47;25.98;;;14.23;;
75135;SDS011;63707;52.212;9.540;2024-03-06T00:28:12;29.38;;;14.52;;
75135;SDS011;63707;52.212;9.540;2024-03-06T00:30:38;28.23;;;15.57;;
75135;SDS011;63707;52.212;9.540;2024-03-06T00:33:03;28.88;;;14.75;;
75135;SDS011;63707;52.212;9.540;2024-03-06T00:35:29;31.00;;;15.63;;
75135;SDS011;63707;52.212;9.540;2024-03-06T00:37:54;33.75;;;15.55;;
75135;SDS011;63707;52.212;9.540;2024-03-06T00:40:21;29.45;;;14.98;;
75135;SDS011;63707;52.212;9.540;2024-03-06T00:42:47;30.05;;;16.73;;
75135;SDS011;63707;52.212;9.540;2024-03-06T00:45:12;29.70;;;16.38;;
75135;SDS011;63707;52.212;9.540;2024-03-06T00:47:37;33.65;;;16.65;;
75135;SDS011;63707;52.212;9.540;2024-03-06T00:50:03;31.45;;;15.48;;
75135;SDS011;63707;52.212;9.540;2024-03-06T00:52:32;28.75;;;15.75;;
75135;SDS011;63707;52.212;9.540;2024-03-06T00:54:58;31.77;;;17.48;;
75135;SDS011;63707;52.212;9.540;2024-03-06T00:57:25;32.00;;;16.45;;
75135;SDS011;63707;52.212;9.540;2024-03-06T00:59:50;33.25;;;16.63;;
75135;SDS011;63707;52.212;9.540;2024-03-06T01:02:16;32.95;;;15.15;;
75135;SDS011;63707;52.212;9.540;2024-03-06T01:04:41;31.70;;;16.05;;
75135;SDS011;63707;52.212;9.540;2024-03-06T01:07:07;30.20;;;17.20;;
75135;SDS011;63707;52.212;9.540;2024-03-06T01:09:32;41.97;;;17.95;;
75135;SDS011;63707;52.212;9.540;2024-03-06T01:11:58;31.52;;;16.77;;
75135;SDS011;63707;52.212;9.540;2024-03-06T01:14:25;30.90;;;15.82;;
75135;SDS011;63707;52.212;9.540;2024-03-06T01:16:50;33.05;;;16.83;;
75135;SDS011;63707;52.212;9.540;2024-03-06T01:19:16;35.30;;;16.75;;
75135;SDS011;63707;52.212;9.540;2024-03-06T01:21:41;31.75;;;16.92;;
75135;SDS011;63707;52.212;9.540;2024-03-06T01:24:07;38.38;;;17.20;;
75135;SDS011;63707;52.212;9.540;2024-03-06T01:26:32;37.35;;;18.85;;
75135;SDS011;63707;52.212;9.540;2024-03-06T01:28:58;38.80;;;18.30;;
75135;SDS011;63707;52.212;9.540;2024-03-06T01:31:25;39.53;;;18.77;;
75135;SDS011;63707;52.212;9.540;2024-03-06T01:33:50;40.00;;;18.73;;
75135;SDS011;63707;52.212;9.540;2024-03-06T01:36:16;39.38;;;18.73;;
75135;SDS011;63707;52.212;9.540;2024-03-06T01:38:41;34.13;;;18.05;;
75135;SDS011;63707;52.212;9.540;2024-03-06T01:41:07;37.80;;;18.85;;
75135;SDS011;63707;52.212;9.540;2024-03-06T01:43:36;35.15;;;18.70;;
75135;SDS011;63707;52.212;9.540;2024-03-06T01:46:02;46.47;;;19.58;;
75135;SDS011;63707;52.212;9.540;2024-03-06T01:48:30;34.17;;;18.30;;
75135;SDS011;63707;52.212;9.540;2024-03-06T01:50:57;37.63;;;18.60;;
75135;SDS011;63707;52.212;9.540;2024-03-06T01:53:25;40.83;;;18.52;;
75135;SDS011;63707;52.212;9.540;2024-03-06T01:55:52;38.10;;;18.90;;
75135;SDS011;63707;52.212;9.540;2024-03-06T01:58:17;40.30;;;18.30;;
75135;SDS011;63707;52.212;9.540;2024-03-06T02:00:46;38.47;;;18.80;;
75135;SDS011;63707;52.212;9.540;2024-03-06T02:03:12;38.08;;;19.58;;
75135;SDS011;63707;52.212;9.540;2024-03-06T02:05:39;41.28;;;20.25;;
75135;SDS011;63707;52.212;9.540;2024-03-06T02:08:06;41.25;;;18.38;;
75135;SDS011;63707;52.212;9.540;2024-03-06T02:10:32;42.13;;;19.67;;
75135;SDS011;63707;52.212;9.540;2024-03-06T02:12:59;44.28;;;20.65;;
75135;SDS011;63707;52.212;9.540;2024-03-06T02:15:25;43.05;;;20.30;;
75135;SDS011;63707;52.212;9.540;2024-03-06T02:17:50;47.90;;;20.73;;
75135;SDS011;63707;52.212;9.540;2024-03-06T02:20:21;41.42;;;20.98;;
75135;SDS011;63707;52.212;9.540;2024-03-06T02:22:47;38.38;;;18.40;;
75135;SDS011;63707;52.212;9.540;2024-03-06T02:25:13;44.88;;;20.00;;
75135;SDS011;63707;52.212;9.540;2024-03-06T02:27:40;36.47;;;17.85;;
75135;SDS011;63707;52.212;9.540;2024-03-06T02:30:06;42.65;;;20.52;;
75135;SDS011;63707;52.212;9.540;2024-03-06T02:32:32;40.45;;;19.33;;
75135;SDS011;63707;52.212;9.540;2024-03-06T02:34:57;42.20;;;21.10;;
75135;SDS011;63707;52.212;9.540;2024-03-06T02:37:24;41.80;;;19.98;;
75135;SDS011;63707;52.212;9.540;2024-03-06T02:39:50;45.28;;;19.30;;
75135;SDS011;63707;52.212;9.540;2024-03-06T02:42:16;39.58;;;19.25;;
75135;SDS011;63707;52.212;9.540;2024-03-06T02:44:42;42.40;;;20.33;;
75135;SDS011;63707;52.212;9.540;2024-03-06T02:47:08;44.40;;;21.17;;
75135;SDS011;63707;52.212;9.540;2024-03-06T02:49:33;45.88;;;20.85;;
75135;SDS011;63707;52.212;9.540;2024-03-06T02:51:59;42.40;;;20.80;;
75135;SDS011;63707;52.212;9.540;2024-03-06T02:54:27;47.00;;;21.38;;
75135;SDS011;63707;52.212;9.540;2024-03-06T02:56:53;41.63;;;20.20;;
75135;SDS011;63707;52.212;9.540;2024-03-06T02:59:18;45.00;;;21.55;;
75135;SDS011;63707;52.212;9.540;2024-03-06T03:01:44;39.00;;;19.88;;
75135;SDS011;63707;52.212;9.540;2024-03-06T03:04:09;45.67;;;21.23;;
75135;SDS011;63707;52.212;9.540;2024-03-06T03:06:35;40.78;;;19.92;;
75135;SDS011;63707;52.212;9.540;2024-03-06T03:09:01;41.35;;;20.60;;
75135;SDS011;63707;52.212;9.540;2024-03-06T03:11:30;47.10;;;20.65;;
75135;SDS011;63707;52.212;9.540;2024-03-06T03:13:56;41.70;;;20.13;;
75135;SDS011;63707;52.212;9.540;2024-03-06T03:16:22;42.85;;;20.33;;
75135;SDS011;63707;52.212;9.540;2024-03-06T03:18:48;40.60;;;20.38;;
75135;SDS011;63707;52.212;9.540;2024-03-06T03:21:13;47.28;;;21.45;;
75135;SDS011;63707;52.212;9.540;2024-03-06T03:23:39;48.17;;;22.02;;
75135;SDS011;63707;52.212;9.540;2024-03-06T03:26:05;44.60;;;20.65;;
75135;SDS011;63707;52.212;9.540;2024-03-06T03:28:32;40.78;;;20.75;;
75135;SDS011;63707;52.212;9.540;2024-03-06T03:30:57;48.05;;;20.83;;
75135;SDS011;63707;52.212;9.540;2024-03-06T03:33:23;44.10;;;21.88;;
75135;SDS011;63707;52.212;9.540;2024-03-06T03:35:48;46.67;;;21.67;;
75135;SDS011;63707;52.212;9.540;2024-03-06T03:38:14;49.53;;;21.20;;
75135;SDS011;63707;52.212;9.540;2024-03-06T03:40:39;44.35;;;21.90;;
75135;SDS011;63707;52.212;9.540;2024-03-06T03:43:05;41.95;;;20.55;;
75135;SDS011;63707;52.212;9.540;2024-03-06T03:45:35;44.72;;;21.83;;
75135;SDS011;63707;52.212;9.540;2024-03-06T03:48:01;44.10;;;21.95;;
75135;SDS011;63707;52.212;9.540;2024-03-06T03:50:27;49.80;;;21.50;;
75135;SDS011;63707;52.212;9.540;2024-03-06T03:52:53;45.42;;;21.67;;
75135;SDS011;63707;52.212;9.540;2024-03-06T03:55:18;44.72;;;21.42;;
75135;SDS011;63707;52.212;9.540;2024-03-06T03:57:44;45.28;;;22.48;;
75135;SDS011;63707;52.212;9.540;2024-03-06T04:00:10;45.55;;;21.88;;
75135;SDS011;63707;52.212;9.540;2024-03-06T04:02:37;45.03;;;22.50;;
75135;SDS011;63707;52.212;9.540;2024-03-06T04:05:03;50.40;;;22.40;;
75135;SDS011;63707;52.212;9.540;2024-03-06T04:07:29;44.63;;;21.67;;
75135;SDS011;63707;52.212;9.540;2024-03-06T04:09:55;47.90;;;21.85;;
75135;SDS011;63707;52.212;9.540;2024-03-06T04:12:20;44.60;;;21.60;;
75135;SDS011;63707;52.212;9.540;2024-03-06T04:14:46;46.30;;;22.17;;
75135;SDS011;63707;52.212;9.540;2024-03-06T04:17:11;45.90;;;22.88;;
75135;SDS011;63707;52.212;9.540;2024-03-06T04:19:38;42.90;;;21.73;;
75135;SDS011;63707;52.212;9.540;2024-03-06T04:22:04;51.00;;;22.92;;
75135;SDS011;63707;52.212;9.540;2024-03-06T04:24:29;44.15;;;21.58;;
75135;SDS011;63707;52.212;9.540;2024-03-06T04:26:55;44.55;;;21.73;;
75135;SDS011;63707;52.212;9.540;2024-03-06T04:29:20;44.33;;;21.73;;
75135;SDS011;63707;52.212;9.540;2024-03-06T04:31:46;48.65;;;22.70;;
75135;SDS011;63707;52.212;9.540;2024-03-06T04:34:11;42.05;;;21.45;;
75135;SDS011;63707;52.212;9.540;2024-03-06T04:36:38;48.28;;;22.52;;
75135;SDS011;63707;52.212;9.540;2024-03-06T04:39:04;47.53;;;22.52;;
75135;SDS011;63707;52.212;9.540;2024-03-06T04:41:32;45.60;;;22.48;;
75135;SDS011;63707;52.212;9.540;2024-03-06T04:43:58;48.15;;;22.30;;
75135;SDS011;63707;52.212;9.540;2024-03-06T04:46:25;46.28;;;22.85;;
75135;SDS011;63707;52.212;9.540;2024-03-06T04:48:51;47.15;;;21.80;;
75135;SDS011;63707;52.212;9.540;2024-03-06T04:51:16;47.45;;;22.35;;
75135;SDS011;63707;52.212;9.540;2024-03-06T04:53:45;45.10;;;21.60;;
75135;SDS011;63707;52.212;9.540;2024-03-06T04:56:11;44.40;;;21.00;;
75135;SDS011;63707;52.212;9.540;2024-03-06T04:58:37;45.53;;;20.80;;
75135;SDS011;63707;52.212;9.540;2024-03-06T05:01:03;46.45;;;21.45;;
75135;SDS011;63707;52.212;9.540;2024-03-06T05:03:29;43.33;;;21.58;;
75135;SDS011;63707;52.212;9.540;2024-03-06T05:05:54;44.83;;;22.40;;
75135;SDS011;63707;52.212;9.540;2024-03-06T05:08:19;45.28;;;20.65;;
75135;SDS011;63707;52.212;9.540;2024-03-06T05:10:47;54.05;;;21.92;;
75135;SDS011;63707;52.212;9.540;2024-03-06T05:13:12;43.92;;;20.52;;
75135;SDS011;63707;52.212;9.540;2024-03-06T05:15:37;44.72;;;20.73;;
75135;SDS011;63707;52.212;9.540;2024-03-06T05:18:04;42.17;;;21.65;;
75135;SDS011;63707;52.212;9.540;2024-03-06T05:20:30;46.65;;;21.30;;
75135;SDS011;63707;52.212;9.540;2024-03-06T05:22:56;40.70;;;20.88;;
75135;SDS011;63707;52.212;9.540;2024-03-06T05:25:21;48.47;;;22.00;;
75135;SDS011;63707;52.212;9.540;2024-03-06T05:27:48;36.28;;;20.00;;
75135;SDS011;63707;52.212;9.540;2024-03-06T05:30:14;47.65;;;22.88;;
75135;SDS011;63707;52.212;9.540;2024-03-06T05:32:40;43.35;;;20.17;;
75135;SDS011;63707;52.212;9.540;2024-03-06T05:35:06;39.90;;;20.95;;
75135;SDS011;63707;52.212;9.540;2024-03-06T05:37:34;40.63;;;20.83;;
75135;SDS011;63707;52.212;9.540;2024-03-06T05:40:00;44.25;;;20.27;;
75135;SDS011;63707;52.212;9.540;2024-03-06T05:42:25;42.22;;;20.15;;
75135;SDS011;63707;52.212;9.540;2024-03-06T05:44:52;43.33;;;21.02;;
75135;SDS011;63707;52.212;9.540;2024-03-06T05:47:19;40.90;;;21.05;;
75135;SDS011;63707;52.212;9.540;2024-03-06T05:49:45;41.88;;;20.83;;
75135;SDS011;63707;52.212;9.540;2024-03-06T05:52:10;41.28;;;21.52;;
75135;SDS011;63707;52.212;9.540;2024-03-06T05:54:36;43.28;;;21.95;;
75135;SDS011;63707;52.212;9.540;2024-03-06T05:57:02;42.03;;;21.10;;
75135;SDS011;63707;52.212;9.540;2024-03-06T05:59:28;42.70;;;21.75;;
75135;SDS011;63707;52.212;9.540;2024-03-06T06:01:55;37.55;;;19.42;;
75135;SDS011;63707;52.212;9.540;2024-03-06T06:04:20;42.60;;;21.73;;
75135;SDS011;63707;52.212;9.540;2024-03-06T06:06:47;45.33;;;22.08;;
75135;SDS011;63707;52.212;9.540;2024-03-06T06:09:12;42.20;;;21.50;;
75135;SDS011;63707;52.212;9.540;2024-03-06T06:11:40;43.28;;;20.20;;
75135;SDS011;63707;52.212;9.540;2024-03-06T06:14:06;47.17;;;21.25;;
75135;SDS011;63707;52.212;9.540;2024-03-06T06:16:35;42.00;;;20.73;;
75135;SDS011;63707;52.212;9.540;2024-03-06T06:19:03;43.13;;;19.95;;
75135;SDS011;63707;52.212;9.540;2024-03-06T06:21:29;42.35;;;19.98;;
75135;SDS011;63707;52.212;9.540;2024-03-06T06:23:54;40.28;;;20.48;;
75135;SDS011;63707;52.212;9.540;2024-03-06T06:26:21;42.55;;;20.10;;
75135;SDS011;63707;52.212;9.540;2024-03-06T06:28:46;41.65;;;20.27;;
75135;SDS011;63707;52.212;9.540;2024-03-06T06:31:12;40.05;;;20.38;;
75135;SDS011;63707;52.212;9.540;2024-03-06T06:33:37;45.83;;;22.23;;
75135;SDS011;63707;52.212;9.540;2024-03-06T06:36:05;45.42;;;20.88;;
75135;SDS011;63707;52.212;9.540;2024-03-06T06:38:31;43.65;;;20.83;;
75135;SDS011;63707;52.212;9.540;2024-03-06T06:40:56;38.75;;;20.73;;
75135;SDS011;63707;52.212;9.540;2024-03-06T06:43:24;38.92;;;19.67;;
75135;SDS011;63707;52.212;9.540;2024-03-06T06:45:49;43.28;;;21.25;;
75135;SDS011;63707;52.212;9.540;2024-03-06T06:48:15;41.22;;;19.10;;
75135;SDS011;63707;52.212;9.540;2024-03-06T06:50:41;44.67;;;20.48;;
75135;SDS011;63707;52.212;9.540;2024-03-06T06:53:08;42.90;;;20.17;;
75135;SDS011;63707;52.212;9.540;2024-03-06T06:55:33;45.63;;;20.10;;
75135;SDS011;63707;52.212;9.540;2024-03-06T06:57:59;39.47;;;19.92;;
75135;SDS011;63707;52.212;9.540;2024-03-06T07:00:24;41.88;;;21.35;;
75135;SDS011;63707;52.212;9.540;2024-03-06T07:02:50;40.20;;;19.65;;
75135;SDS011;63707;52.212;9.540;2024-03-06T07:05:16;38.15;;;20.58;;
75135;SDS011;63707;52.212;9.540;2024-03-06T07:07:41;45.70;;;21.02;;
75135;SDS011;63707;52.212;9.540;2024-03-06T07:10:09;40.50;;;20.75;;
75135;SDS011;63707;52.212;9.540;2024-03-06T07:12:35;38.38;;;19.25;;
75135;SDS011;63707;52.212;9.540;2024-03-06T07:15:01;38.20;;;17.90;;
75135;SDS011;63707;52.212;9.540;2024-03-06T07:17:28;44.95;;;20.30;;
75135;SDS011;63707;52.212;9.540;2024-03-06T07:19:53;38.47;;;18.98;;
75135;SDS011;63707;52.212;9.540;2024-03-06T07:22:19;41.80;;;19.45;;
75135;SDS011;63707;52.212;9.540;2024-03-06T07:24:45;42.00;;;19.55;;
75135;SDS011;63707;52.212;9.540;2024-03-06T07:27:11;40.13;;;19.95;;
75135;SDS011;63707;52.212;9.540;2024-03-06T07:29:37;36.85;;;19.58;;
75135;SDS011;63707;52.212;9.540;2024-03-06T07:32:03;38.75;;;18.98;;
75135;SDS011;63707;52.212;9.540;2024-03-06T07:34:31;40.65;;;19.58;;
75135;SDS011;63707;52.212;9.540;2024-03-06T07:36:57;39.28;;;19.20;;
75135;SDS011;63707;52.212;9.540;2024-03-06T07:39:26;43.60;;;19.50;;
75135;SDS011;63707;52.212;9.540;2024-03-06T07:41:52;41.30;;;18.80;;
75135;SDS011;63707;52.212;9.540;2024-03-06T07:44:19;40.97;;;20.00;;
75135;SDS011;63707;52.212;9.540;2024-03-06T07:46:45;38.22;;;19.15;;
75135;SDS011;63707;52.212;9.540;2024-03-06T07:49:10;38.35;;;18.88;;
75135;SDS011;63707;52.212;9.540;2024-03-06T07:51:36;39.20;;;19.48;;
75135;SDS011;63707;52.212;9.540;2024-03-06T07:54:02;42.20;;;20.35;;
75135;SDS011;63707;52.212;9.540;2024-03-06T07:56:29;41.40;;;20.40;;
75135;SDS011;63707;52.212;9.540;2024-03-06T07:58:55;38.58;;;18.85;;
75135;SDS011;63707;52.212;9.540;2024-03-06T08:01:22;40.80;;;20.35;;
75135;SDS011;63707;52.212;9.540;2024-03-06T08:03:47;43.72;;;20.60;;
75135;SDS011;63707;52.212;9.540;2024-03-06T08:06:13;42.35;;;19.95;;
75135;SDS011;63707;52.212;9.540;2024-03-06T08:08:42;37.88;;;19.27;;
75135;SDS011;63707;52.212;9.540;2024-03-06T08:11:09;40.35;;;19.30;;
75135;SDS011;63707;52.212;9.540;2024-03-06T08:13:36;41.70;;;20.00;;
75135;SDS011;63707;52.212;9.540;2024-03-06T08:16:01;38.70;;;20.20;;
75135;SDS011;63707;52.212;9.540;2024-03-06T08:18:28;41.20;;;19.73;;
75135;SDS011;63707;52.212;9.540;2024-03-06T08:20:54;40.72;;;19.40;;
75135;SDS011;63707;52.212;9.540;2024-03-06T08:23:19;42.35;;;20.48;;
75135;SDS011;63707;52.212;9.540;2024-03-06T08:25:45;38.45;;;19.90;;
75135;SDS011;63707;52.212;9.540;2024-03-06T08:28:10;38.13;;;20.08;;
75135;SDS011;63707;52.212;9.540;2024-03-06T08:30:36;39.60;;;19.85;;
75135;SDS011;63707;52.212;9.540;2024-03-06T08:33:01;40.08;;;19.98;;
75135;SDS011;63707;52.212;9.540;2024-03-06T08:35:28;41.97;;;19.33;;
75135;SDS011;63707;52.212;9.540;2024-03-06T08:37:55;38.58;;;18.80;;
75135;SDS011;63707;52.212;9.540;2024-03-06T08:40:20;36.20;;;18.52;;
75135;SDS011;63707;52.212;9.540;2024-03-06T08:42:46;41.47;;;20.30;;
75135;SDS011;63707;52.212;9.540;2024-03-06T08:45:14;40.88;;;18.58;;
75135;SDS011;63707;52.212;9.540;2024-03-06T08:47:40;40.10;;;20.02;;
75135;SDS011;63707;52.212;9.540;2024-03-06T08:50:06;43.00;;;19.75;;
75135;SDS011;63707;52.212;9.540;2024-03-06T08:52:34;38.65;;;18.92;;
75135;SDS011;63707;52.212;9.540;2024-03-06T08:54:59;38.38;;;18.77;;
75135;SDS011;63707;52.212;9.540;2024-03-06T08:57:25;38.05;;;19.17;;
75135;SDS011;63707;52.212;9.540;2024-03-06T08:59:53;43.92;;;19.65;;
75135;SDS011;63707;52.212;9.540;2024-03-06T09:02:18;41.35;;;19.40;;
75135;SDS011;63707;52.212;9.540;2024-03-06T09:04:45;33.58;;;18.48;;
75135;SDS011;63707;52.212;9.540;2024-03-06T09:07:11;41.03;;;18.63;;
75135;SDS011;63707;52.212;9.540;2024-03-06T09:09:38;38.78;;;19.70;;
75135;SDS011;63707;52.212;9.540;2024-03-06T09:12:04;41.45;;;18.38;;
75135;SDS011;63707;52.212;9.540;2024-03-06T09:14:31;41.65;;;19.77;;
75135;SDS011;63707;52.212;9.540;2024-03-06T09:16:57;43.13;;;19.80;;
75135;SDS011;63707;52.212;9.540;2024-03-06T09:19:22;37.88;;;19.73;;
75135;SDS011;63707;52.212;9.540;2024-03-06T09:21:47;40.53;;;19.25;;
75135;SDS011;63707;52.212;9.540;2024-03-06T09:24:13;39.78;;;19.45;;
75135;SDS011;63707;52.212;9.540;2024-03-06T09:26:40;39.13;;;20.17;;
75135;SDS011;63707;52.212;9.540;2024-03-06T09:29:05;43.33;;;19.98;;
75135;SDS011;63707;52.212;9.540;2024-03-06T09:31:31;41.85;;;20.50;;
75135;SDS011;63707;52.212;9.540;2024-03-06T09:33:56;36.22;;;20.15;;
75135;SDS011;63707;52.212;9.540;2024-03-06T09:36:23;40.55;;;20.33;;
75135;SDS011;63707;52.212;9.540;2024-03-06T09:38:48;46.17;;;21.63;;
75135;SDS011;63707;52.212;9.540;2024-03-06T09:41:14;38.15;;;19.13;;
75135;SDS011;63707;52.212;9.540;2024-03-06T09:43:40;40.33;;;19.98;;
75135;SDS011;63707;52.212;9.540;2024-03-06T09:46:08;40.55;;;20.00;;
75135;SDS011;63707;52.212;9.540;2024-03-06T09:48:34;39.63;;;19.55;;
75135;SDS011;63707;52.212;9.540;2024-03-06T09:51:01;43.05;;;19.33;;
75135;SDS011;63707;52.212;9.540;2024-03-06T09:53:27;38.35;;;19.95;;
75135;SDS011;63707;52.212;9.540;2024-03-06T09:55:53;43.90;;;21.17;;
75135;SDS011;63707;52.212;9.540;2024-03-06T09:58:21;39.58;;;19.55;;
75135;SDS011;63707;52.212;9.540;2024-03-06T10:00:48;39.78;;;19.58;;
75135;SDS011;63707;52.212;9.540;2024-03-06T10:03:15;39.22;;;19.83;;
75135;SDS011;63707;52.212;9.540;2024-03-06T10:05:40;42.22;;;20.00;;
75135;SDS011;63707;52.212;9.540;2024-03-06T10:08:08;43.50;;;19.75;;
75135;SDS011;63707;52.212;9.540;2024-03-06T10:10:35;42.35;;;19.77;;
75135;SDS011;63707;52.212;9.540;2024-03-06T10:13:00;40.40;;;20.08;;
75135;SDS011;63707;52.212;9.540;2024-03-06T10:15:26;38.55;;;19.65;;
75135;SDS011;63707;52.212;9.540;2024-03-06T10:17:57;38.50;;;19.63;;
75135;SDS011;63707;52.212;9.540;2024-03-06T10:20:36;39.53;;;19.83;;
75135;SDS011;63707;52.212;9.540;2024-03-06T10:23:02;38.70;;;19.70;;
75135;SDS011;63707;52.212;9.540;2024-03-06T10:25:27;40.45;;;19.75;;
75135;SDS011;63707;52.212;9.540;2024-03-06T10:28:03;41.22;;;20.20;;
75135;SDS011;63707;52.212;9.540;2024-03-06T10:30:30;35.50;;;18.73;;
75135;SDS011;63707;52.212;9.540;2024-03-06T10:32:57;38.15;;;18.90;;
75135;SDS011;63707;52.212;9.540;2024-03-06T10:35:23;38.00;;;19.42;;
75135;SDS011;63707;52.212;9.540;2024-03-06T10:37:50;35.38;;;18.77;;
75135;SDS011;63707;52.212;9.540;2024-03-06T10:40:19;43.47;;;20.15;;
75135;SDS011;63707;52.212;9.540;2024-03-06T10:42:45;40.67;;;20.67;;
75135;SDS011;63707;52.212;9.540;2024-03-06T10:45:13;40.83;;;21.10;;
75135;SDS011;63707;52.212;9.540;2024-03-06T10:47:44;46.10;;;21.58;;
75135;SDS011;63707;52.212;9.540;2024-03-06T10:50:13;41.47;;;21.90;;
75135;SDS011;63707;52.212;9.540;2024-03-06T10:52:40;39.72;;;21.10;;
75135;SDS011;63707;52.212;9.540;2024-03-06T10:55:07;40.42;;;20.38;;
75135;SDS011;63707;52.212;9.540;2024-03-06T10:57:35;36.83;;;21.30;;
75135;SDS011;63707;52.212;9.540;2024-03-06T11:00:01;42.17;;;21.20;;
75135;SDS011;63707;52.212;9.540;2024-03-06T11:02:27;40.28;;;19.70;;
75135;SDS011;63707;52.212;9.540;2024-03-06T11:04:54;40.03;;;19.20;;
75135;SDS011;63707;52.212;9.540;2024-03-06T11:07:21;41.33;;;21.13;;
75135;SDS011;63707;52.212;9.540;2024-03-06T11:09:47;40.55;;;21.23;;
75135;SDS011;63707;52.212;9.540;2024-03-06T11:12:14;41.45;;;19.60;;
75135;SDS011;63707;52.212;9.540;2024-03-06T11:14:57;39.13;;;19.95;;
75135;SDS011;63707;52.212;9.540;2024-03-06T11:17:25;38.35;;;20.08;;
75135;SDS011;63707;52.212;9.540;2024-03-06T11:20:12;38.83;;;20.80;;
75135;SDS011;63707;52.212;9.540;2024-03-06T11:23:04;46.38;;;22.30;;
75135;SDS011;63707;52.212;9.540;2024-03-06T11:28:28;42.13;;;21.35;;
75135;SDS011;63707;52.212;9.540;2024-03-06T11:30:56;39.95;;;21.15;;
75135;SDS011;63707;52.212;9.540;2024-03-06T11:33:28;46.13;;;21.30;;
75135;SDS011;63707;52.212;9.540;2024-03-06T11:36:14;35.40;;;19.50;;
75135;SDS011;63707;52.212;9.540;2024-03-06T11:38:44;44.25;;;21.27;;
75135;SDS011;63707;52.212;9.540;2024-03-06T11:41:12;40.30;;;21.02;;
75135;SDS011;63707;52.212;9.540;2024-03-06T11:43:42;47.80;;;20.13;;
75135;SDS011;63707;52.212;9.540;2024-03-06T11:46:07;40.00;;;20.85;;
75135;SDS011;63707;52.212;9.540;2024-03-06T11:48:34;39.38;;;20.90;;
75135;SDS011;63707;52.212;9.540;2024-03-06T11:51:00;41.95;;;21.70;;
75135;SDS011;63707;52.212;9.540;2024-03-06T11:53:27;42.55;;;21.13;;
75135;SDS011;63707;52.212;9.540;2024-03-06T11:55:56;42.42;;;20.35;;
75135;SDS011;63707;52.212;9.540;2024-03-06T11:58:21;40.30;;;20.45;;
75135;SDS011;63707;52.212;9.540;2024-03-06T12:00:47;43.38;;;22.20;;
75135;SDS011;63707;52.212;9.540;2024-03-06T12:03:13;48.75;;;21.88;;
75135;SDS011;63707;52.212;9.540;2024-03-06T12:05:38;42.45;;;21.70;;
75135;SDS011;63707;52.212;9.540;2024-03-06T12:08:06;42.80;;;21.08;;
75135;SDS011;63707;52.212;9.540;2024-03-06T12:10:36;45.35;;;23.13;;
75135;SDS011;63707;52.212;9.540;2024-03-06T12:13:03;39.45;;;21.02;;
75135;SDS011;63707;52.212;9.540;2024-03-06T12:15:29;39.60;;;21.17;;
75135;SDS011;63707;52.212;9.540;2024-03-06T12:17:54;43.42;;;22.05;;
75135;SDS011;63707;52.212;9.540;2024-03-06T12:20:20;43.65;;;21.63;;
75135;SDS011;63707;52.212;9.540;2024-03-06T12:22:48;45.55;;;21.20;;
75135;SDS011;63707;52.212;9.540;2024-03-06T12:25:17;45.60;;;20.98;;
75135;SDS011;63707;52.212;9.540;2024-03-06T12:27:44;38.45;;;19.70;;
75135;SDS011;63707;52.212;9.540;2024-03-06T12:30:11;44.10;;;21.80;;
75135;SDS011;63707;52.212;9.540;2024-03-06T12:32:38;40.20;;;21.30;;
75135;SDS011;63707;52.212;9.540;2024-03-06T12:35:04;38.00;;;20.30;;
75135;SDS011;63707;52.212;9.540;2024-03-06T12:37:30;40.67;;;20.10;;
75135;SDS011;63707;52.212;9.540;2024-03-06T12:39:56;36.83;;;21.20;;
75135;SDS011;63707;52.212;9.540;2024-03-06T12:42:22;41.90;;;20.70;;
75135;SDS011;63707;52.212;9.540;2024-03-06T12:44:49;40.60;;;21.00;;
75135;SDS011;63707;52.212;9.540;2024-03-06T12:47:16;45.53;;;21.30;;
75135;SDS011;63707;52.212;9.540;2024-03-06T12:49:41;40.15;;;19.00;;
75135;SDS011;63707;52.212;9.540;2024-03-06T12:52:07;39.83;;;20.40;;
75135;SDS011;63707;52.212;9.540;2024-03-06T12:54:33;38.33;;;19.88;;
75135;SDS011;63707;52.212;9.540;2024-03-06T12:56:59;38.88;;;20.77;;
75135;SDS011;63707;52.212;9.540;2024-03-06T12:59:24;41.30;;;20.58;;
75135;SDS011;63707;52.212;9.540;2024-03-06T13:01:50;39.47;;;20.33;;
75135;SDS011;63707;52.212;9.540;2024-03-06T13:04:17;39.22;;;20.77;;
75135;SDS011;63707;52.212;9.540;2024-03-06T13:06:43;36.33;;;19.58;;
75135;SDS011;63707;52.212;9.540;2024-03-06T13:09:10;41.58;;;20.50;;
75135;SDS011;63707;52.212;9.540;2024-03-06T13:11:35;41.47;;;20.60;;
75135;SDS011;63707;52.212;9.540;2024-03-06T13:14:01;43.05;;;21.85;;
75135;SDS011;63707;52.212;9.540;2024-03-06T13:16:26;37.75;;;20.48;;
75135;SDS011;63707;52.212;9.540;2024-03-06T13:18:52;43.25;;;21.42;;
75135;SDS011;63707;52.212;9.540;2024-03-06T13:21:20;37.30;;;20.63;;
75135;SDS011;63707;52.212;9.540;2024-03-06T13:23:46;40.78;;;19.80;;
75135;SDS011;63707;52.212;9.540;2024-03-06T13:26:11;40.63;;;20.42;;
75135;SDS011;63707;52.212;9.540;2024-03-06T13:28:38;39.15;;;20.00;;
75135;SDS011;63707;52.212;9.540;2024-03-06T13:31:04;36.80;;;19.70;;
75135;SDS011;63707;52.212;9.540;2024-03-06T13:33:32;37.70;;;18.75;;
75135;SDS011;63707;52.212;9.540;2024-03-06T13:35:57;33.67;;;19.17;;
75135;SDS011;63707;52.212;9.540;2024-03-06T13:38:24;35.90;;;18.80;;
75135;SDS011;63707;52.212;9.540;2024-03-06T13:40:50;39.83;;;19.35;;
75135;SDS011;63707;52.212;9.540;2024-03-06T13:43:15;38.30;;;18.50;;
75135;SDS011;63707;52.212;9.540;2024-03-06T13:45:47;35.30;;;17.73;;
75135;SDS011;63707;52.212;9.540;2024-03-06T13:48:14;47.05;;;20.40;;
75135;SDS011;63707;52.212;9.540;2024-03-06T13:50:41;44.30;;;21.23;;
75135;SDS011;63707;52.212;9.540;2024-03-06T13:53:07;42.80;;;21.88;;
75135;SDS011;63707;52.212;9.540;2024-03-06T13:55:34;38.35;;;20.48;;
75135;SDS011;63707;52.212;9.540;2024-03-06T13:58:00;38.65;;;19.02;;
75135;SDS011;63707;52.212;9.540;2024-03-06T14:00:26;40.90;;;19.45;;
75135;SDS011;63707;52.212;9.540;2024-03-06T14:02:52;36.83;;;18.80;;
75135;SDS011;63707;52.212;9.540;2024-03-06T14:05:17;37.05;;;19.83;;
75135;SDS011;63707;52.212;9.540;2024-03-06T14:07:45;38.05;;;18.60;;
75135;SDS011;63707;52.212;9.540;2024-03-06T14:10:10;42.17;;;19.13;;
75135;SDS011;63707;52.212;9.540;2024-03-06T14:12:37;37.65;;;18.02;;
75135;SDS011;63707;52.212;9.540;2024-03-06T14:15:03;45.58;;;20.65;;
75135;SDS011;63707;52.212;9.540;2024-03-06T14:17:30;39.78;;;19.25;;
75135;SDS011;63707;52.212;9.540;2024-03-06T14:19:55;34.53;;;19.33;;